sensor_id;sensor_type;location;lat;lon;timestamp;temperature;humidity
68476;DHT22;55464;48.266;14.188;2022-07-29T00:01:18;22.60;57.90
68476;DHT22;55464;48.266;14.188;2022-07-29T00:03:43;22.60;58.30
68476;DHT22;55464;48.266;14.188;2022-07-29T00:06:09;22.60;58.70
68476;DHT22;55464;48.266;14.188;2022-07-29T00:08:35;22.60;59.00
68476;DHT22;55464;48.266;14.188;2022-07-29T00:11:00;22.60;59.30
68476;DHT22;55464;48.266;14.188;2022-07-29T00:13:26;22.60;59.30
68476;DHT22;55464;48.266;14.188;2022-07-29T00:15:52;22.60;59.40
68476;DHT22;55464;48.266;14.188;2022-07-29T00:18:17;22.60;59.50
68476;DHT22;55464;48.266;14.188;2022-07-29T00:20:43;22.60;59.60
68476;DHT22;55464;48.266;14.188;2022-07-29T00:23:08;22.50;59.70
68476;DHT22;55464;48.266;14.188;2022-07-29T00:25:34;22.60;59.60
68476;DHT22;55464;48.266;14.188;2022-07-29T00:28:00;22.60;59.60
68476;DHT22;55464;48.266;14.188;2022-07-29T00:30:25;22.60;59.60
68476;DHT22;55464;48.266;14.188;2022-07-29T00:32:51;22.60;59.70
68476;DHT22;55464;48.266;14.188;2022-07-29T00:35:17;22.60;59.90
68476;DHT22;55464;48.266;14.188;2022-07-29T00:38:01;22.60;59.40
68476;DHT22;55464;48.266;14.188;2022-07-29T00:40:26;22.50;59.50
68476;DHT22;55464;48.266;14.188;2022-07-29T00:42:52;22.50;59.80
68476;DHT22;55464;48.266;14.188;2022-07-29T00:45:19;22.50;60.00
68476;DHT22;55464;48.266;14.188;2022-07-29T00:47:45;22.50;60.10
68476;DHT22;55464;48.266;14.188;2022-07-29T00:50:12;22.50;60.20
68476;DHT22;55464;48.266;14.188;2022-07-29T00:52:40;22.40;60.40
68476;DHT22;55464;48.266;14.188;2022-07-29T00:55:08;22.40;60.40
68476;DHT22;55464;48.266;14.188;2022-07-29T00:57:35;22.40;60.50
68476;DHT22;55464;48.266;14.188;2022-07-29T01:00:05;22.40;60.30
68476;DHT22;55464;48.266;14.188;2022-07-29T01:02:30;22.40;60.50
68476;DHT22;55464;48.266;14.188;2022-07-29T01:04:57;22.30;60.50
68476;DHT22;55464;48.266;14.188;2022-07-29T01:07:24;22.40;60.60
68476;DHT22;55464;48.266;14.188;2022-07-29T01:09:51;22.30;60.70
68476;DHT22;55464;48.266;14.188;2022-07-29T01:12:22;22.20;60.80
68476;DHT22;55464;48.266;14.188;2022-07-29T01:14:49;22.20;61.00
68476;DHT22;55464;48.266;14.188;2022-07-29T01:17:36;22.20;61.10
68476;DHT22;55464;48.266;14.188;2022-07-29T01:28:58;22.30;60.90
68476;DHT22;55464;48.266;14.188;2022-07-29T01:31:47;22.30;60.80
68476;DHT22;55464;48.266;14.188;2022-07-29T01:37:18;22.30;60.90
68476;DHT22;55464;48.266;14.188;2022-07-29T01:39:47;22.30;61.20
68476;DHT22;55464;48.266;14.188;2022-07-29T01:45:06;22.20;62.10
68476;DHT22;55464;48.266;14.188;2022-07-29T01:50:20;22.20;62.60
68476;DHT22;55464;48.266;14.188;2022-07-29T01:52:59;22.10;62.80
68476;DHT22;55464;48.266;14.188;2022-07-29T01:55:38;22.10;62.80
68476;DHT22;55464;48.266;14.188;2022-07-29T01:58:05;22.10;62.70
68476;DHT22;55464;48.266;14.188;2022-07-29T02:00:33;22.10;62.40
68476;DHT22;55464;48.266;14.188;2022-07-29T02:03:03;22.10;62.40
68476;DHT22;55464;48.266;14.188;2022-07-29T02:05:30;22.10;62.50
68476;DHT22;55464;48.266;14.188;2022-07-29T02:07:58;22.10;62.60
68476;DHT22;55464;48.266;14.188;2022-07-29T02:10:27;22.10;62.70
68476;DHT22;55464;48.266;14.188;2022-07-29T02:12:55;22.10;62.70
68476;DHT22;55464;48.266;14.188;2022-07-29T02:15:24;22.10;62.80
68476;DHT22;55464;48.266;14.188;2022-07-29T02:17:55;22.10;62.80
68476;DHT22;55464;48.266;14.188;2022-07-29T02:20:23;22.10;62.80
68476;DHT22;55464;48.266;14.188;2022-07-29T02:22:51;22.10;62.90
68476;DHT22;55464;48.266;14.188;2022-07-29T02:25:17;22.10;63.30
68476;DHT22;55464;48.266;14.188;2022-07-29T02:27:44;22.10;63.30
68476;DHT22;55464;48.266;14.188;2022-07-29T02:30:12;22.00;63.60
68476;DHT22;55464;48.266;14.188;2022-07-29T02:32:39;21.90;64.20
68476;DHT22;55464;48.266;14.188;2022-07-29T02:35:07;21.90;64.70
68476;DHT22;55464;48.266;14.188;2022-07-29T02:37:34;21.90;65.20
68476;DHT22;55464;48.266;14.188;2022-07-29T02:40:01;21.80;65.50
68476;DHT22;55464;48.266;14.188;2022-07-29T02:42:27;21.70;66.10
68476;DHT22;55464;48.266;14.188;2022-07-29T02:44:54;21.60;66.60
68476;DHT22;55464;48.266;14.188;2022-07-29T02:47:41;21.60;66.80
68476;DHT22;55464;48.266;14.188;2022-07-29T02:50:12;21.60;67.10
68476;DHT22;55464;48.266;14.188;2022-07-29T02:52:52;21.50;67.30
68476;DHT22;55464;48.266;14.188;2022-07-29T02:55:37;21.50;67.10
68476;DHT22;55464;48.266;14.188;2022-07-29T02:58:32;21.50;67.10
68476;DHT22;55464;48.266;14.188;2022-07-29T03:01:02;21.50;67.20
68476;DHT22;55464;48.266;14.188;2022-07-29T03:03:31;21.50;67.00
68476;DHT22;55464;48.266;14.188;2022-07-29T03:06:00;21.50;67.20
68476;DHT22;55464;48.266;14.188;2022-07-29T03:08:27;21.40;67.10
68476;DHT22;55464;48.266;14.188;2022-07-29T03:10:53;21.50;67.10
68476;DHT22;55464;48.266;14.188;2022-07-29T03:13:19;21.40;67.10
68476;DHT22;55464;48.266;14.188;2022-07-29T03:15:47;21.40;67.20
68476;DHT22;55464;48.266;14.188;2022-07-29T03:18:13;21.40;67.40
68476;DHT22;55464;48.266;14.188;2022-07-29T03:20:39;21.40;67.70
68476;DHT22;55464;48.266;14.188;2022-07-29T03:23:05;21.50;68.00
68476;DHT22;55464;48.266;14.188;2022-07-29T03:25:30;21.50;68.30
68476;DHT22;55464;48.266;14.188;2022-07-29T03:27:56;21.50;68.30
68476;DHT22;55464;48.266;14.188;2022-07-29T03:30:23;21.50;68.40
68476;DHT22;55464;48.266;14.188;2022-07-29T03:32:49;21.40;68.50
68476;DHT22;55464;48.266;14.188;2022-07-29T03:35:15;21.40;68.50
68476;DHT22;55464;48.266;14.188;2022-07-29T03:37:44;21.30;68.70
68476;DHT22;55464;48.266;14.188;2022-07-29T03:40:13;21.30;68.70
68476;DHT22;55464;48.266;14.188;2022-07-29T03:42:40;21.30;68.60
68476;DHT22;55464;48.266;14.188;2022-07-29T03:45:11;21.30;68.70
68476;DHT22;55464;48.266;14.188;2022-07-29T03:47:40;21.30;68.60
68476;DHT22;55464;48.266;14.188;2022-07-29T03:50:09;21.20;68.70
68476;DHT22;55464;48.266;14.188;2022-07-29T03:52:37;21.10;68.70
68476;DHT22;55464;48.266;14.188;2022-07-29T03:55:03;21.20;68.90
68476;DHT22;55464;48.266;14.188;2022-07-29T03:57:30;21.10;69.00
68476;DHT22;55464;48.266;14.188;2022-07-29T03:59:57;21.10;69.00
68476;DHT22;55464;48.266;14.188;2022-07-29T04:02:24;21.10;69.40
68476;DHT22;55464;48.266;14.188;2022-07-29T04:04:51;21.00;69.40
68476;DHT22;55464;48.266;14.188;2022-07-29T04:07:17;21.00;69.40
68476;DHT22;55464;48.266;14.188;2022-07-29T04:09:42;21.00;69.50
68476;DHT22;55464;48.266;14.188;2022-07-29T04:12:08;21.10;69.80
68476;DHT22;55464;48.266;14.188;2022-07-29T04:14:34;21.10;69.40
68476;DHT22;55464;48.266;14.188;2022-07-29T04:17:01;21.10;69.30
68476;DHT22;55464;48.266;14.188;2022-07-29T04:19:27;21.10;68.90
68476;DHT22;55464;48.266;14.188;2022-07-29T04:21:53;21.10;69.00
68476;DHT22;55464;48.266;14.188;2022-07-29T04:24:19;21.20;68.90
68476;DHT22;55464;48.266;14.188;2022-07-29T04:26:46;21.20;68.80
68476;DHT22;55464;48.266;14.188;2022-07-29T04:29:11;21.20;68.60
68476;DHT22;55464;48.266;14.188;2022-07-29T04:31:40;21.20;68.50
68476;DHT22;55464;48.266;14.188;2022-07-29T04:34:06;21.20;69.10
68476;DHT22;55464;48.266;14.188;2022-07-29T04:36:31;21.10;69.00
68476;DHT22;55464;48.266;14.188;2022-07-29T04:38:57;21.20;69.20
68476;DHT22;55464;48.266;14.188;2022-07-29T04:41:23;21.20;69.10
68476;DHT22;55464;48.266;14.188;2022-07-29T04:43:49;21.20;69.50
68476;DHT22;55464;48.266;14.188;2022-07-29T04:46:15;21.10;69.40
68476;DHT22;55464;48.266;14.188;2022-07-29T04:48:40;21.10;69.60
68476;DHT22;55464;48.266;14.188;2022-07-29T04:51:06;21.10;69.80
68476;DHT22;55464;48.266;14.188;2022-07-29T04:53:32;21.10;69.90
68476;DHT22;55464;48.266;14.188;2022-07-29T04:55:58;21.10;69.90
68476;DHT22;55464;48.266;14.188;2022-07-29T04:58:23;21.20;69.70
68476;DHT22;55464;48.266;14.188;2022-07-29T05:00:50;21.10;69.80
68476;DHT22;55464;48.266;14.188;2022-07-29T05:03:16;21.10;69.60
68476;DHT22;55464;48.266;14.188;2022-07-29T05:05:42;21.10;69.40
68476;DHT22;55464;48.266;14.188;2022-07-29T05:08:08;21.10;69.60
68476;DHT22;55464;48.266;14.188;2022-07-29T05:10:34;21.10;69.70
68476;DHT22;55464;48.266;14.188;2022-07-29T05:13:07;21.10;69.60
68476;DHT22;55464;48.266;14.188;2022-07-29T05:15:36;21.20;69.30
68476;DHT22;55464;48.266;14.188;2022-07-29T05:18:03;21.20;69.50
68476;DHT22;55464;48.266;14.188;2022-07-29T05:20:29;21.20;69.60
68476;DHT22;55464;48.266;14.188;2022-07-29T05:22:59;21.20;69.80
68476;DHT22;55464;48.266;14.188;2022-07-29T05:25:26;21.20;69.90
68476;DHT22;55464;48.266;14.188;2022-07-29T05:27:52;21.30;69.50
68476;DHT22;55464;48.266;14.188;2022-07-29T05:30:18;21.20;69.20
68476;DHT22;55464;48.266;14.188;2022-07-29T05:32:44;21.30;69.20
68476;DHT22;55464;48.266;14.188;2022-07-29T05:35:10;21.30;69.10
68476;DHT22;55464;48.266;14.188;2022-07-29T05:37:37;21.30;68.80
68476;DHT22;55464;48.266;14.188;2022-07-29T05:40:03;21.30;68.60
68476;DHT22;55464;48.266;14.188;2022-07-29T05:42:29;21.30;67.90
68476;DHT22;55464;48.266;14.188;2022-07-29T05:44:55;21.30;67.80
68476;DHT22;55464;48.266;14.188;2022-07-29T05:47:22;21.30;67.90
68476;DHT22;55464;48.266;14.188;2022-07-29T05:49:51;21.40;68.00
68476;DHT22;55464;48.266;14.188;2022-07-29T05:52:17;21.40;68.30
68476;DHT22;55464;48.266;14.188;2022-07-29T05:54:43;21.40;68.00
68476;DHT22;55464;48.266;14.188;2022-07-29T05:57:14;21.40;68.60
68476;DHT22;55464;48.266;14.188;2022-07-29T05:59:40;21.50;68.80
68476;DHT22;55464;48.266;14.188;2022-07-29T06:02:05;21.40;68.70
68476;DHT22;55464;48.266;14.188;2022-07-29T06:04:32;21.50;69.20
68476;DHT22;55464;48.266;14.188;2022-07-29T06:06:57;21.50;69.20
68476;DHT22;55464;48.266;14.188;2022-07-29T06:09:23;21.50;68.90
68476;DHT22;55464;48.266;14.188;2022-07-29T06:11:49;21.50;68.40
68476;DHT22;55464;48.266;14.188;2022-07-29T06:14:15;21.50;68.20
68476;DHT22;55464;48.266;14.188;2022-07-29T06:16:40;21.60;66.90
68476;DHT22;55464;48.266;14.188;2022-07-29T06:19:06;21.60;66.20
68476;DHT22;55464;48.266;14.188;2022-07-29T06:21:32;21.60;66.10
68476;DHT22;55464;48.266;14.188;2022-07-29T06:23:59;21.60;65.90
68476;DHT22;55464;48.266;14.188;2022-07-29T06:26:24;21.60;65.80
68476;DHT22;55464;48.266;14.188;2022-07-29T06:28:50;21.60;66.50
68476;DHT22;55464;48.266;14.188;2022-07-29T06:31:15;21.70;66.90
68476;DHT22;55464;48.266;14.188;2022-07-29T06:33:41;21.70;66.80
68476;DHT22;55464;48.266;14.188;2022-07-29T06:36:07;21.60;67.10
68476;DHT22;55464;48.266;14.188;2022-07-29T06:38:33;21.70;66.90
68476;DHT22;55464;48.266;14.188;2022-07-29T06:41:00;21.70;67.10
68476;DHT22;55464;48.266;14.188;2022-07-29T06:43:30;21.70;66.70
68476;DHT22;55464;48.266;14.188;2022-07-29T06:46:02;21.70;66.60
68476;DHT22;55464;48.266;14.188;2022-07-29T06:48:28;21.70;66.20
68476;DHT22;55464;48.266;14.188;2022-07-29T06:50:54;21.80;65.90
68476;DHT22;55464;48.266;14.188;2022-07-29T06:53:20;21.80;66.40
68476;DHT22;55464;48.266;14.188;2022-07-29T06:55:45;21.80;67.20
68476;DHT22;55464;48.266;14.188;2022-07-29T06:58:11;21.80;67.10
68476;DHT22;55464;48.266;14.188;2022-07-29T07:00:37;21.80;68.10
68476;DHT22;55464;48.266;14.188;2022-07-29T07:03:03;21.80;68.20
68476;DHT22;55464;48.266;14.188;2022-07-29T07:05:29;21.80;68.00
68476;DHT22;55464;48.266;14.188;2022-07-29T07:07:54;21.80;67.90
68476;DHT22;55464;48.266;14.188;2022-07-29T07:10:20;21.80;68.00
68476;DHT22;55464;48.266;14.188;2022-07-29T07:12:45;21.80;68.30
68476;DHT22;55464;48.266;14.188;2022-07-29T07:15:11;21.80;67.90
68476;DHT22;55464;48.266;14.188;2022-07-29T07:17:37;21.80;67.00
68476;DHT22;55464;48.266;14.188;2022-07-29T07:20:04;21.80;66.60
68476;DHT22;55464;48.266;14.188;2022-07-29T07:22:30;21.80;66.30
68476;DHT22;55464;48.266;14.188;2022-07-29T07:24:56;21.80;66.50
68476;DHT22;55464;48.266;14.188;2022-07-29T07:27:22;21.80;66.60
68476;DHT22;55464;48.266;14.188;2022-07-29T07:29:48;21.80;68.00
68476;DHT22;55464;48.266;14.188;2022-07-29T07:32:14;21.90;67.80
68476;DHT22;55464;48.266;14.188;2022-07-29T07:34:42;21.80;67.40
68476;DHT22;55464;48.266;14.188;2022-07-29T07:37:08;21.90;67.00
68476;DHT22;55464;48.266;14.188;2022-07-29T07:39:34;21.80;67.60
68476;DHT22;55464;48.266;14.188;2022-07-29T07:42:00;21.80;67.80
68476;DHT22;55464;48.266;14.188;2022-07-29T07:44:26;21.80;67.70
68476;DHT22;55464;48.266;14.188;2022-07-29T07:46:52;21.90;68.20
68476;DHT22;55464;48.266;14.188;2022-07-29T07:49:17;21.90;68.20
68476;DHT22;55464;48.266;14.188;2022-07-29T07:51:43;21.90;67.70
68476;DHT22;55464;48.266;14.188;2022-07-29T07:54:09;21.90;67.00
68476;DHT22;55464;48.266;14.188;2022-07-29T07:56:35;21.90;67.50
68476;DHT22;55464;48.266;14.188;2022-07-29T07:59:00;21.90;66.70
68476;DHT22;55464;48.266;14.188;2022-07-29T08:01:26;21.90;66.30
68476;DHT22;55464;48.266;14.188;2022-07-29T08:03:52;21.90;66.80
68476;DHT22;55464;48.266;14.188;2022-07-29T08:06:18;21.90;67.10
68476;DHT22;55464;48.266;14.188;2022-07-29T08:08:43;22.00;67.10
68476;DHT22;55464;48.266;14.188;2022-07-29T08:11:09;22.00;67.00
68476;DHT22;55464;48.266;14.188;2022-07-29T08:13:35;22.00;66.50
68476;DHT22;55464;48.266;14.188;2022-07-29T08:16:01;22.00;66.30
68476;DHT22;55464;48.266;14.188;2022-07-29T08:18:30;21.90;66.20
68476;DHT22;55464;48.266;14.188;2022-07-29T08:20:57;21.90;66.30
68476;DHT22;55464;48.266;14.188;2022-07-29T08:23:23;22.00;66.00
68476;DHT22;55464;48.266;14.188;2022-07-29T08:25:49;22.00;66.30
68476;DHT22;55464;48.266;14.188;2022-07-29T08:28:15;21.90;66.60
68476;DHT22;55464;48.266;14.188;2022-07-29T08:30:41;22.00;66.70
68476;DHT22;55464;48.266;14.188;2022-07-29T08:33:07;21.90;66.70
68476;DHT22;55464;48.266;14.188;2022-07-29T08:35:32;22.00;66.70
68476;DHT22;55464;48.266;14.188;2022-07-29T08:37:58;22.00;66.90
68476;DHT22;55464;48.266;14.188;2022-07-29T08:40:24;22.00;66.30
68476;DHT22;55464;48.266;14.188;2022-07-29T08:42:50;21.90;66.20
68476;DHT22;55464;48.266;14.188;2022-07-29T08:45:16;22.00;65.80
68476;DHT22;55464;48.266;14.188;2022-07-29T08:47:44;22.00;64.90
68476;DHT22;55464;48.266;14.188;2022-07-29T08:50:10;22.00;64.40
68476;DHT22;55464;48.266;14.188;2022-07-29T08:52:37;22.00;64.30
68476;DHT22;55464;48.266;14.188;2022-07-29T08:55:05;22.00;64.30
68476;DHT22;55464;48.266;14.188;2022-07-29T08:57:33;22.00;64.20
68476;DHT22;55464;48.266;14.188;2022-07-29T09:00:00;22.00;64.50
68476;DHT22;55464;48.266;14.188;2022-07-29T09:02:29;22.00;65.30
68476;DHT22;55464;48.266;14.188;2022-07-29T09:04:56;22.00;65.30
68476;DHT22;55464;48.266;14.188;2022-07-29T09:07:23;22.00;65.50
68476;DHT22;55464;48.266;14.188;2022-07-29T09:09:48;22.00;65.60
68476;DHT22;55464;48.266;14.188;2022-07-29T09:12:14;22.00;65.90
68476;DHT22;55464;48.266;14.188;2022-07-29T09:14:41;22.00;65.90
68476;DHT22;55464;48.266;14.188;2022-07-29T09:17:07;22.10;65.90
68476;DHT22;55464;48.266;14.188;2022-07-29T09:19:34;22.10;65.90
68476;DHT22;55464;48.266;14.188;2022-07-29T09:22:02;22.20;66.00
68476;DHT22;55464;48.266;14.188;2022-07-29T09:27:01;22.20;66.50
68476;DHT22;55464;48.266;14.188;2022-07-29T09:29:27;22.20;66.40
68476;DHT22;55464;48.266;14.188;2022-07-29T09:31:54;22.30;66.10
68476;DHT22;55464;48.266;14.188;2022-07-29T09:34:25;22.20;65.00
68476;DHT22;55464;48.266;14.188;2022-07-29T09:36:52;22.30;65.40
68476;DHT22;55464;48.266;14.188;2022-07-29T09:39:45;22.40;66.00
68476;DHT22;55464;48.266;14.188;2022-07-29T09:42:13;22.30;66.60
68476;DHT22;55464;48.266;14.188;2022-07-29T09:44:47;22.40;66.70
68476;DHT22;55464;48.266;14.188;2022-07-29T09:47:14;22.50;67.00
68476;DHT22;55464;48.266;14.188;2022-07-29T09:49:58;22.50;66.90
68476;DHT22;55464;48.266;14.188;2022-07-29T09:52:26;22.50;66.20
68476;DHT22;55464;48.266;14.188;2022-07-29T09:54:52;22.50;65.90
68476;DHT22;55464;48.266;14.188;2022-07-29T09:57:27;22.50;66.10
68476;DHT22;55464;48.266;14.188;2022-07-29T10:02:36;22.50;65.50
68476;DHT22;55464;48.266;14.188;2022-07-29T10:05:04;22.50;65.00
68476;DHT22;55464;48.266;14.188;2022-07-29T10:07:47;22.50;64.70
68476;DHT22;55464;48.266;14.188;2022-07-29T10:12:57;22.60;64.80
68476;DHT22;55464;48.266;14.188;2022-07-29T10:15:25;22.60;64.50
68476;DHT22;55464;48.266;14.188;2022-07-29T10:17:53;22.60;64.70
68476;DHT22;55464;48.266;14.188;2022-07-29T10:20:20;22.60;65.50
68476;DHT22;55464;48.266;14.188;2022-07-29T10:22:47;22.60;66.00
68476;DHT22;55464;48.266;14.188;2022-07-29T10:25:14;22.70;65.30
68476;DHT22;55464;48.266;14.188;2022-07-29T10:27:41;22.70;65.60
68476;DHT22;55464;48.266;14.188;2022-07-29T10:30:07;22.70;65.50
68476;DHT22;55464;48.266;14.188;2022-07-29T10:35:19;22.70;65.60
68476;DHT22;55464;48.266;14.188;2022-07-29T10:43:44;22.90;66.20
68476;DHT22;55464;48.266;14.188;2022-07-29T10:46:11;23.00;66.90
68476;DHT22;55464;48.266;14.188;2022-07-29T10:49:12;23.00;66.90
68476;DHT22;55464;48.266;14.188;2022-07-29T10:52:08;23.00;66.30
68476;DHT22;55464;48.266;14.188;2022-07-29T10:57:26;23.00;65.90
68476;DHT22;55464;48.266;14.188;2022-07-29T11:07:26;23.20;64.60
68476;DHT22;55464;48.266;14.188;2022-07-29T11:15:12;23.30;66.30
68476;DHT22;55464;48.266;14.188;2022-07-29T11:20:45;23.40;66.60
68476;DHT22;55464;48.266;14.188;2022-07-29T11:31:15;23.40;61.90
68476;DHT22;55464;48.266;14.188;2022-07-29T11:33:41;23.50;61.60
68476;DHT22;55464;48.266;14.188;2022-07-29T11:36:14;23.50;62.20
68476;DHT22;55464;48.266;14.188;2022-07-29T11:38:41;23.50;63.80
68476;DHT22;55464;48.266;14.188;2022-07-29T11:43:56;23.60;66.40
68476;DHT22;55464;48.266;14.188;2022-07-29T11:46:48;23.60;65.10
68476;DHT22;55464;48.266;14.188;2022-07-29T11:49:25;23.70;64.50
68476;DHT22;55464;48.266;14.188;2022-07-29T11:51:55;23.60;63.20
68476;DHT22;55464;48.266;14.188;2022-07-29T11:54:25;23.70;63.50
68476;DHT22;55464;48.266;14.188;2022-07-29T11:56:52;23.70;64.10
68476;DHT22;55464;48.266;14.188;2022-07-29T11:59:19;23.70;64.80
68476;DHT22;55464;48.266;14.188;2022-07-29T12:01:55;23.80;64.60
68476;DHT22;55464;48.266;14.188;2022-07-29T12:04:21;23.80;60.80
68476;DHT22;55464;48.266;14.188;2022-07-29T12:06:52;23.80;61.20
68476;DHT22;55464;48.266;14.188;2022-07-29T12:09:18;23.80;61.80
68476;DHT22;55464;48.266;14.188;2022-07-29T12:11:45;23.80;62.80
68476;DHT22;55464;48.266;14.188;2022-07-29T12:14:31;23.90;63.30
68476;DHT22;55464;48.266;14.188;2022-07-29T12:16:58;24.00;65.10
68476;DHT22;55464;48.266;14.188;2022-07-29T12:19:25;24.00;65.40
68476;DHT22;55464;48.266;14.188;2022-07-29T12:21:52;24.00;66.30
68476;DHT22;55464;48.266;14.188;2022-07-29T12:24:20;24.10;66.80
68476;DHT22;55464;48.266;14.188;2022-07-29T12:26:54;24.00;66.40
68476;DHT22;55464;48.266;14.188;2022-07-29T12:29:20;24.10;64.30
68476;DHT22;55464;48.266;14.188;2022-07-29T12:31:46;24.10;65.30
68476;DHT22;55464;48.266;14.188;2022-07-29T12:34:15;24.20;66.20
68476;DHT22;55464;48.266;14.188;2022-07-29T12:36:42;24.20;66.40
68476;DHT22;55464;48.266;14.188;2022-07-29T12:39:08;24.20;66.30
68476;DHT22;55464;48.266;14.188;2022-07-29T12:41:35;24.30;64.80
68476;DHT22;55464;48.266;14.188;2022-07-29T12:44:01;24.30;64.30
68476;DHT22;55464;48.266;14.188;2022-07-29T12:46:27;24.30;63.50
68476;DHT22;55464;48.266;14.188;2022-07-29T12:48:53;24.30;63.40
68476;DHT22;55464;48.266;14.188;2022-07-29T12:54:11;24.40;64.90
68476;DHT22;55464;48.266;14.188;2022-07-29T12:56:41;24.40;65.10
68476;DHT22;55464;48.266;14.188;2022-07-29T12:59:21;24.50;63.40
68476;DHT22;55464;48.266;14.188;2022-07-29T13:01:50;24.50;62.10
68476;DHT22;55464;48.266;14.188;2022-07-29T13:04:27;24.50;62.50
68476;DHT22;55464;48.266;14.188;2022-07-29T13:07:04;24.50;62.70
68476;DHT22;55464;48.266;14.188;2022-07-29T13:09:44;24.50;63.80
68476;DHT22;55464;48.266;14.188;2022-07-29T13:12:14;24.60;63.50
68476;DHT22;55464;48.266;14.188;2022-07-29T13:14:45;24.60;63.50
68476;DHT22;55464;48.266;14.188;2022-07-29T13:20:03;24.60;60.40
68476;DHT22;55464;48.266;14.188;2022-07-29T13:22:29;24.60;60.90
68476;DHT22;55464;48.266;14.188;2022-07-29T13:27:24;24.60;59.90
68476;DHT22;55464;48.266;14.188;2022-07-29T13:29:50;24.60;59.60
68476;DHT22;55464;48.266;14.188;2022-07-29T13:32:18;24.60;58.50
68476;DHT22;55464;48.266;14.188;2022-07-29T13:34:44;24.60;57.70
68476;DHT22;55464;48.266;14.188;2022-07-29T13:37:10;24.60;58.10
68476;DHT22;55464;48.266;14.188;2022-07-29T13:39:36;24.60;58.10
68476;DHT22;55464;48.266;14.188;2022-07-29T13:42:06;24.70;57.30
68476;DHT22;55464;48.266;14.188;2022-07-29T13:44:32;24.70;57.80
68476;DHT22;55464;48.266;14.188;2022-07-29T13:46:58;24.70;58.40
68476;DHT22;55464;48.266;14.188;2022-07-29T13:49:25;24.70;58.60
68476;DHT22;55464;48.266;14.188;2022-07-29T13:51:50;24.80;58.40
68476;DHT22;55464;48.266;14.188;2022-07-29T13:54:16;24.80;58.00
68476;DHT22;55464;48.266;14.188;2022-07-29T13:56:42;24.80;58.40
68476;DHT22;55464;48.266;14.188;2022-07-29T13:59:08;24.80;57.80
68476;DHT22;55464;48.266;14.188;2022-07-29T14:01:34;24.90;57.60
68476;DHT22;55464;48.266;14.188;2022-07-29T14:04:00;24.80;57.00
68476;DHT22;55464;48.266;14.188;2022-07-29T14:06:26;24.90;57.10
68476;DHT22;55464;48.266;14.188;2022-07-29T14:08:52;25.00;56.70
68476;DHT22;55464;48.266;14.188;2022-07-29T14:11:18;25.00;56.80
68476;DHT22;55464;48.266;14.188;2022-07-29T14:13:43;25.00;56.30
68476;DHT22;55464;48.266;14.188;2022-07-29T14:16:09;25.00;56.30
68476;DHT22;55464;48.266;14.188;2022-07-29T14:18:35;25.00;56.50
68476;DHT22;55464;48.266;14.188;2022-07-29T14:21:00;25.00;56.40
68476;DHT22;55464;48.266;14.188;2022-07-29T14:23:27;25.00;56.30
68476;DHT22;55464;48.266;14.188;2022-07-29T14:25:52;25.00;54.40
68476;DHT22;55464;48.266;14.188;2022-07-29T14:28:18;25.00;54.00
68476;DHT22;55464;48.266;14.188;2022-07-29T14:30:44;25.10;54.40
68476;DHT22;55464;48.266;14.188;2022-07-29T14:33:09;25.10;54.60
68476;DHT22;55464;48.266;14.188;2022-07-29T14:35:35;25.10;54.90
68476;DHT22;55464;48.266;14.188;2022-07-29T14:38:01;25.30;54.40
68476;DHT22;55464;48.266;14.188;2022-07-29T14:40:26;25.30;54.30
68476;DHT22;55464;48.266;14.188;2022-07-29T14:42:52;25.40;53.80
68476;DHT22;55464;48.266;14.188;2022-07-29T14:45:17;25.50;54.00
68476;DHT22;55464;48.266;14.188;2022-07-29T14:47:43;25.50;54.10
68476;DHT22;55464;48.266;14.188;2022-07-29T14:50:09;25.60;54.30
68476;DHT22;55464;48.266;14.188;2022-07-29T14:52:35;25.70;54.90
68476;DHT22;55464;48.266;14.188;2022-07-29T14:55:02;25.80;54.60
68476;DHT22;55464;48.266;14.188;2022-07-29T14:57:28;26.00;53.50
68476;DHT22;55464;48.266;14.188;2022-07-29T14:59:54;26.00;54.60
68476;DHT22;55464;48.266;14.188;2022-07-29T15:02:20;26.00;54.90
68476;DHT22;55464;48.266;14.188;2022-07-29T15:04:45;26.10;54.90
68476;DHT22;55464;48.266;14.188;2022-07-29T15:07:13;26.20;54.90
68476;DHT22;55464;48.266;14.188;2022-07-29T15:09:39;26.30;53.80
68476;DHT22;55464;48.266;14.188;2022-07-29T15:12:06;26.50;53.70
68476;DHT22;55464;48.266;14.188;2022-07-29T15:14:32;26.60;53.30
68476;DHT22;55464;48.266;14.188;2022-07-29T15:16:57;26.80;53.10
68476;DHT22;55464;48.266;14.188;2022-07-29T15:19:23;27.00;51.90
68476;DHT22;55464;48.266;14.188;2022-07-29T15:21:49;27.00;52.00
68476;DHT22;55464;48.266;14.188;2022-07-29T15:24:16;27.10;50.70
68476;DHT22;55464;48.266;14.188;2022-07-29T15:26:42;27.20;50.40
68476;DHT22;55464;48.266;14.188;2022-07-29T15:29:08;27.30;50.10
68476;DHT22;55464;48.266;14.188;2022-07-29T15:31:34;27.30;50.20
68476;DHT22;55464;48.266;14.188;2022-07-29T15:33:59;27.30;50.00
68476;DHT22;55464;48.266;14.188;2022-07-29T15:36:25;27.30;50.20
68476;DHT22;55464;48.266;14.188;2022-07-29T15:38:54;27.30;49.80
68476;DHT22;55464;48.266;14.188;2022-07-29T15:41:20;27.30;50.20
68476;DHT22;55464;48.266;14.188;2022-07-29T15:43:46;27.20;50.10
68476;DHT22;55464;48.266;14.188;2022-07-29T15:46:17;27.20;49.80
68476;DHT22;55464;48.266;14.188;2022-07-29T15:49:03;27.10;50.40
68476;DHT22;55464;48.266;14.188;2022-07-29T15:51:29;27.00;51.10
68476;DHT22;55464;48.266;14.188;2022-07-29T15:53:55;27.00;51.30
68476;DHT22;55464;48.266;14.188;2022-07-29T15:56:21;27.00;50.70
68476;DHT22;55464;48.266;14.188;2022-07-29T15:58:47;27.10;50.10
68476;DHT22;55464;48.266;14.188;2022-07-29T16:01:12;27.00;50.60
68476;DHT22;55464;48.266;14.188;2022-07-29T16:03:38;27.00;51.00
68476;DHT22;55464;48.266;14.188;2022-07-29T16:06:04;27.10;50.00
68476;DHT22;55464;48.266;14.188;2022-07-29T16:08:30;27.00;49.90
68476;DHT22;55464;48.266;14.188;2022-07-29T16:10:56;27.10;50.60
68476;DHT22;55464;48.266;14.188;2022-07-29T16:13:21;27.10;50.30
68476;DHT22;55464;48.266;14.188;2022-07-29T16:15:47;27.10;50.60
68476;DHT22;55464;48.266;14.188;2022-07-29T16:18:13;27.00;50.70
68476;DHT22;55464;48.266;14.188;2022-07-29T16:20:40;27.00;49.80
68476;DHT22;55464;48.266;14.188;2022-07-29T16:23:06;27.10;48.90
68476;DHT22;55464;48.266;14.188;2022-07-29T16:25:34;27.00;49.40
68476;DHT22;55464;48.266;14.188;2022-07-29T16:28:00;27.20;51.00
68476;DHT22;55464;48.266;14.188;2022-07-29T16:30:26;27.20;51.50